Terminal Aerodrome Forecast
Issued by NWS Shreveport, LA

Home | Current Version | Previous Version | Text Only | Print | Product List | Glossary On
Versions: 1 2 3 4 5 6 7 8 9 10 11 12 13 14 15 16 17
000
FTUS44 KSHV 062348
TAFTYR
TAF
KTYR 062348Z 0700/0724 15011KT P6SM SCT035 BKN060
     FM070700 16009KT P6SM BKN013
     FM070900 16009KT P6SM BKN008
     FM071500 17010KT P6SM BKN015
     FM071700 17012KT P6SM BKN030
     FM071900 17012G18KT P6SM BKN040=

USA.gov is the U.S. government's official web portal to all federal, state and local government web resources and services.